NKS2112 KBNA-KLIT
Flight info
| Callsign | NKS2112 |
|---|---|
| Flight time | 0h 58m |
| Altitude | 36000 |
| Route | DANLS4 TPEEE LIT |
| Aircraft | A320/M-SDE3FGHIRWY/LB1 |
Departure
| Time | 2026-05-08 14:15 |
|---|---|
| Airport | Nashville International Airport (KBNA) |
Arrival
| Time | 2026-05-08 15:13 |
|---|---|
| Airport | Bill & Hillary Clinton National Airport/Adams Field (KLIT) |
| Time | Latitude | Longitude | Altitude | Speed | Heading |
|---|---|---|---|---|---|
| 2026-05-08 13:57 | 36.13224 | -86.67160 | 569 ft | 0 kts | 24° |
| 2026-05-08 14:08 | 36.13222 | -86.67161 | 569 ft | 2 kts | 24° |
| 2026-05-08 14:08 | 36.13207 | -86.67170 | 574 ft | 2 kts | 24° |
| 2026-05-08 14:09 | 36.13191 | -86.67178 | 569 ft | 2 kts | 24° |
| 2026-05-08 14:09 | 36.13176 | -86.67187 | 571 ft | 2 kts | 24° |
| 2026-05-08 14:09 | 36.13162 | -86.67197 | 576 ft | 2 kts | 74° |
| 2026-05-08 14:09 | 36.13160 | -86.67208 | 575 ft | 0 kts | 116° |
| 2026-05-08 14:10 | 36.13156 | -86.67205 | 576 ft | 2 kts | 134° |
| 2026-05-08 14:10 | 36.13109 | -86.67190 | 569 ft | 11 kts | 163° |
| 2026-05-08 14:10 | 36.13027 | -86.67157 | 574 ft | 13 kts | 169° |
| 2026-05-08 14:11 | 36.12953 | -86.67219 | 573 ft | 15 kts | 223° |
| 2026-05-08 14:11 | 36.12882 | -86.67255 | 573 ft | 11 kts | 197° |
| 2026-05-08 14:11 | 36.12814 | -86.67320 | 572 ft | 12 kts | 221° |
| 2026-05-08 14:11 | 36.12750 | -86.67391 | 573 ft | 13 kts | 223° |
| 2026-05-08 14:12 | 36.12672 | -86.67461 | 578 ft | 14 kts | 210° |
| 2026-05-08 14:12 | 36.12579 | -86.67531 | 577 ft | 16 kts | 218° |
| 2026-05-08 14:12 | 36.12525 | -86.67597 | 580 ft | 16 kts | 224° |
| 2026-05-08 14:12 | 36.12434 | -86.67672 | 581 ft | 11 kts | 178° |
| 2026-05-08 14:13 | 36.12363 | -86.67719 | 579 ft | 13 kts | 232° |
| 2026-05-08 14:13 | 36.12379 | -86.67843 | 581 ft | 10 kts | 288° |
| 2026-05-08 14:13 | 36.12380 | -86.67846 | 580 ft | 0 kts | 288° |
| 2026-05-08 14:14 | 36.12382 | -86.67856 | 579 ft | 4 kts | 288° |
| 2026-05-08 14:14 | 36.12400 | -86.67919 | 579 ft | 10 kts | 290° |
| 2026-05-08 14:14 | 36.12361 | -86.67986 | 576 ft | 13 kts | 198° |
| 2026-05-08 14:14 | 36.12113 | -86.68084 | 574 ft | 82 kts | 197° |
| 2026-05-08 14:15 | 36.11455 | -86.68345 | 582 ft | 149 kts | 197° |
| 2026-05-08 14:15 | 36.10183 | -86.68839 | 1274 ft | 176 kts | 196° |
| 2026-05-08 14:15 | 36.08958 | -86.69642 | 2406 ft | 187 kts | 222° |
| 2026-05-08 14:15 | 36.08447 | -86.70490 | 2818 ft | 199 kts | 244° |
| 2026-05-08 14:16 | 36.07909 | -86.72230 | 3237 ft | 223 kts | 249° |
| 2026-05-08 14:16 | 36.07362 | -86.74102 | 3661 ft | 247 kts | 250° |
| 2026-05-08 14:16 | 36.06885 | -86.76498 | 4336 ft | 267 kts | 265° |
| 2026-05-08 14:16 | 36.07029 | -86.79365 | 5521 ft | 270 kts | 284° |
| 2026-05-08 14:17 | 36.07476 | -86.81541 | 6411 ft | 271 kts | 285° |
| 2026-05-08 14:17 | 36.07802 | -86.83135 | 6712 ft | 270 kts | 285° |
| 2026-05-08 14:17 | 36.08306 | -86.85585 | 7462 ft | 270 kts | 285° |
| 2026-05-08 14:17 | 36.08746 | -86.87853 | 8527 ft | 268 kts | 282° |
| 2026-05-08 14:18 | 36.09035 | -86.90247 | 9589 ft | 269 kts | 276° |
| 2026-05-08 14:18 | 36.09149 | -86.92711 | 10329 ft | 281 kts | 274° |
| 2026-05-08 14:18 | 36.09211 | -86.95452 | 10601 ft | 306 kts | 273° |
| 2026-05-08 14:18 | 36.09256 | -86.98087 | 11097 ft | 317 kts | 272° |
| 2026-05-08 14:19 | 36.09304 | -87.00788 | 11811 ft | 321 kts | 272° |
| 2026-05-08 14:19 | 36.09342 | -87.02576 | 12307 ft | 323 kts | 272° |
| 2026-05-08 14:19 | 36.09417 | -87.05343 | 13028 ft | 326 kts | 273° |
| 2026-05-08 14:20 | 36.09504 | -87.08205 | 13801 ft | 329 kts | 273° |
| 2026-05-08 14:20 | 36.09571 | -87.10256 | 14303 ft | 330 kts | 273° |
| 2026-05-08 14:20 | 36.09665 | -87.13040 | 15001 ft | 331 kts | 273° |
| 2026-05-08 14:20 | 36.09760 | -87.15892 | 15722 ft | 331 kts | 272° |
| 2026-05-08 14:21 | 36.09852 | -87.18732 | 16422 ft | 332 kts | 272° |
| 2026-05-08 14:21 | 36.09892 | -87.20790 | 16925 ft | 333 kts | 269° |
| 2026-05-08 14:21 | 36.09369 | -87.24672 | 17906 ft | 337 kts | 258° |
| 2026-05-08 14:21 | 36.09019 | -87.26386 | 18360 ft | 337 kts | 258° |
| 2026-05-08 14:22 | 36.08187 | -87.30493 | 19316 ft | 339 kts | 258° |
| 2026-05-08 14:22 | 36.07616 | -87.33332 | 19984 ft | 340 kts | 258° |
| 2026-05-08 14:22 | 36.07044 | -87.36171 | 20648 ft | 341 kts | 258° |
| 2026-05-08 14:22 | 36.06469 | -87.39031 | 21297 ft | 343 kts | 258° |
| 2026-05-08 14:23 | 36.05890 | -87.41899 | 21927 ft | 344 kts | 258° |
| 2026-05-08 14:23 | 36.05295 | -87.44857 | 22546 ft | 346 kts | 258° |
| 2026-05-08 14:23 | 36.04751 | -87.47566 | 23096 ft | 348 kts | 258° |
| 2026-05-08 14:23 | 36.04116 | -87.50710 | 23709 ft | 349 kts | 258° |
| 2026-05-08 14:24 | 36.03521 | -87.53623 | 24193 ft | 351 kts | 258° |
| 2026-05-08 14:24 | 36.02922 | -87.56550 | 24700 ft | 351 kts | 258° |
| 2026-05-08 14:24 | 36.02604 | -87.58107 | 24968 ft | 351 kts | 258° |
| 2026-05-08 14:24 | 36.01815 | -87.61981 | 25629 ft | 350 kts | 258° |
| 2026-05-08 14:25 | 36.01228 | -87.64855 | 26106 ft | 350 kts | 258° |
| 2026-05-08 14:25 | 36.00641 | -87.67737 | 26587 ft | 350 kts | 258° |
| 2026-05-08 14:25 | 36.00003 | -87.70859 | 27101 ft | 350 kts | 258° |
| 2026-05-08 14:25 | 35.99338 | -87.74102 | 27325 ft | 350 kts | 272° |
| 2026-05-08 14:26 | 35.99416 | -87.77209 | 27595 ft | 353 kts | 265° |
| 2026-05-08 14:26 | 35.98968 | -87.80115 | 28153 ft | 352 kts | 256° |
| 2026-05-08 14:26 | 35.98277 | -87.82700 | 28615 ft | 353 kts | 253° |
| 2026-05-08 14:26 | 35.97334 | -87.85802 | 29136 ft | 353 kts | 253° |
| 2026-05-08 14:27 | 35.96747 | -87.87799 | 29449 ft | 353 kts | 253° |
| 2026-05-08 14:27 | 35.95977 | -87.90658 | 29866 ft | 353 kts | 255° |
| 2026-05-08 14:27 | 35.95271 | -87.93602 | 30281 ft | 353 kts | 257° |
| 2026-05-08 14:27 | 35.94636 | -87.96530 | 30629 ft | 353 kts | 257° |
| 2026-05-08 14:28 | 35.94034 | -87.99467 | 31054 ft | 351 kts | 258° |
| 2026-05-08 14:28 | 35.93468 | -88.02284 | 31524 ft | 347 kts | 258° |
| 2026-05-08 14:28 | 35.92854 | -88.05332 | 32071 ft | 344 kts | 258° |
| 2026-05-08 14:28 | 35.92273 | -88.08177 | 32585 ft | 340 kts | 258° |
| 2026-05-08 14:29 | 35.91654 | -88.11204 | 33144 ft | 337 kts | 257° |
| 2026-05-08 14:29 | 35.91097 | -88.13908 | 33628 ft | 334 kts | 258° |
| 2026-05-08 14:29 | 35.90694 | -88.16966 | 34184 ft | 329 kts | 263° |
| 2026-05-08 14:29 | 35.90426 | -88.19749 | 34611 ft | 327 kts | 263° |
| 2026-05-08 14:30 | 35.90170 | -88.22548 | 35013 ft | 325 kts | 263° |
| 2026-05-08 14:30 | 35.89920 | -88.25319 | 35393 ft | 324 kts | 263° |
| 2026-05-08 14:30 | 35.89669 | -88.28117 | 35757 ft | 323 kts | 263° |
| 2026-05-08 14:30 | 35.89409 | -88.30981 | 36057 ft | 323 kts | 263° |
| 2026-05-08 14:31 | 35.89160 | -88.33732 | 36106 ft | 323 kts | 263° |
| 2026-05-08 14:31 | 35.88667 | -88.39135 | 36110 ft | 323 kts | 263° |
| 2026-05-08 14:32 | 35.87916 | -88.47137 | 36108 ft | 323 kts | 263° |
| 2026-05-08 14:32 | 35.87395 | -88.52735 | 36109 ft | 324 kts | 263° |
| 2026-05-08 14:33 | 35.86866 | -88.58405 | 36110 ft | 324 kts | 262° |
| 2026-05-08 14:33 | 35.86343 | -88.63939 | 36113 ft | 325 kts | 262° |
| 2026-05-08 14:34 | 35.85814 | -88.69475 | 36120 ft | 325 kts | 262° |
| 2026-05-08 14:34 | 35.85375 | -88.74087 | 36123 ft | 325 kts | 262° |
| 2026-05-08 14:35 | 35.84831 | -88.79804 | 36123 ft | 325 kts | 262° |
| 2026-05-08 14:35 | 35.84153 | -88.85357 | 36127 ft | 325 kts | 255° |
| 2026-05-08 14:36 | 35.82500 | -88.90629 | 36123 ft | 326 kts | 252° |
| 2026-05-08 14:36 | 35.81048 | -88.95711 | 36125 ft | 326 kts | 253° |
| 2026-05-08 14:37 | 35.79497 | -89.01144 | 36123 ft | 327 kts | 252° |
| 2026-05-08 14:37 | 35.77935 | -89.06450 | 36114 ft | 327 kts | 252° |
| 2026-05-08 14:38 | 35.76365 | -89.11703 | 36118 ft | 327 kts | 252° |
| 2026-05-08 14:38 | 35.74790 | -89.16965 | 36085 ft | 327 kts | 252° |
| 2026-05-08 14:39 | 35.73217 | -89.22219 | 36098 ft | 326 kts | 252° |
| 2026-05-08 14:39 | 35.71645 | -89.27468 | 36096 ft | 327 kts | 252° |
| 2026-05-08 14:40 | 35.70049 | -89.32783 | 36095 ft | 327 kts | 252° |
| 2026-05-08 14:40 | 35.68459 | -89.38080 | 36100 ft | 327 kts | 252° |
| 2026-05-08 14:41 | 35.66872 | -89.43357 | 36104 ft | 327 kts | 252° |
| 2026-05-08 14:41 | 35.65298 | -89.48574 | 36107 ft | 327 kts | 252° |
| 2026-05-08 14:42 | 35.63702 | -89.53851 | 36108 ft | 327 kts | 252° |
| 2026-05-08 14:42 | 35.62116 | -89.59098 | 36107 ft | 327 kts | 252° |
| 2026-05-08 14:43 | 35.60525 | -89.64345 | 36108 ft | 327 kts | 252° |
| 2026-05-08 14:43 | 35.58931 | -89.69593 | 36108 ft | 327 kts | 252° |
| 2026-05-08 14:44 | 35.57391 | -89.74659 | 36105 ft | 327 kts | 251° |
| 2026-05-08 14:44 | 35.55734 | -89.80078 | 36104 ft | 327 kts | 251° |
| 2026-05-08 14:45 | 35.54293 | -89.84781 | 36105 ft | 327 kts | 251° |
| 2026-05-08 14:45 | 35.52671 | -89.90084 | 36105 ft | 328 kts | 251° |
| 2026-05-08 14:46 | 35.51047 | -89.95408 | 36105 ft | 328 kts | 251° |
| 2026-05-08 14:46 | 35.49431 | -90.00688 | 36067 ft | 328 kts | 251° |
| 2026-05-08 14:47 | 35.47735 | -90.06175 | 36095 ft | 328 kts | 251° |
| 2026-05-08 14:47 | 35.46118 | -90.11424 | 36103 ft | 329 kts | 251° |
| 2026-05-08 14:48 | 35.44457 | -90.16788 | 36094 ft | 328 kts | 251° |
| 2026-05-08 14:48 | 35.42891 | -90.21838 | 36101 ft | 328 kts | 251° |
| 2026-05-08 14:49 | 35.41298 | -90.26983 | 36103 ft | 328 kts | 251° |
| 2026-05-08 14:49 | 35.39595 | -90.32474 | 36100 ft | 328 kts | 251° |
| 2026-05-08 14:50 | 35.37935 | -90.37814 | 36099 ft | 328 kts | 251° |
| 2026-05-08 14:50 | 35.36515 | -90.42368 | 35894 ft | 329 kts | 250° |
| 2026-05-08 14:51 | 35.35703 | -90.44968 | 35652 ft | 329 kts | 251° |
| 2026-05-08 14:51 | 35.34949 | -90.47379 | 35415 ft | 329 kts | 251° |
| 2026-05-08 14:51 | 35.34065 | -90.50212 | 34833 ft | 328 kts | 251° |
| 2026-05-08 14:51 | 35.33243 | -90.52846 | 34213 ft | 328 kts | 251° |
| 2026-05-08 14:52 | 35.32425 | -90.55467 | 33516 ft | 328 kts | 251° |
| 2026-05-08 14:52 | 35.30789 | -90.60677 | 32183 ft | 328 kts | 251° |
| 2026-05-08 14:52 | 35.29926 | -90.63431 | 31469 ft | 329 kts | 251° |
| 2026-05-08 14:53 | 35.29108 | -90.66031 | 31095 ft | 322 kts | 251° |
| 2026-05-08 14:53 | 35.28325 | -90.68505 | 30688 ft | 317 kts | 251° |
| 2026-05-08 14:53 | 35.27489 | -90.71150 | 30244 ft | 313 kts | 251° |
| 2026-05-08 14:53 | 35.26643 | -90.73835 | 29734 ft | 311 kts | 251° |
| 2026-05-08 14:54 | 35.25895 | -90.76200 | 29332 ft | 310 kts | 251° |
| 2026-05-08 14:54 | 35.25075 | -90.78795 | 28893 ft | 310 kts | 251° |
| 2026-05-08 14:54 | 35.24552 | -90.80454 | 28612 ft | 310 kts | 251° |
| 2026-05-08 14:54 | 35.23760 | -90.82966 | 28167 ft | 310 kts | 251° |
| 2026-05-08 14:55 | 35.22959 | -90.85496 | 27747 ft | 310 kts | 251° |
| 2026-05-08 14:55 | 35.22140 | -90.88084 | 27305 ft | 309 kts | 251° |
| 2026-05-08 14:55 | 35.21364 | -90.90537 | 26886 ft | 309 kts | 251° |
| 2026-05-08 14:55 | 35.20574 | -90.93026 | 26468 ft | 308 kts | 251° |
| 2026-05-08 14:56 | 35.19785 | -90.95509 | 26052 ft | 308 kts | 251° |
| 2026-05-08 14:56 | 35.19023 | -90.97913 | 25643 ft | 308 kts | 251° |
| 2026-05-08 14:56 | 35.18244 | -91.00371 | 25239 ft | 307 kts | 251° |
| 2026-05-08 14:56 | 35.17474 | -91.02793 | 24833 ft | 307 kts | 251° |
| 2026-05-08 14:57 | 35.16696 | -91.05230 | 24433 ft | 308 kts | 251° |
| 2026-05-08 14:57 | 35.15875 | -91.07795 | 24027 ft | 308 kts | 251° |
| 2026-05-08 14:57 | 35.15129 | -91.10134 | 23648 ft | 308 kts | 251° |
| 2026-05-08 14:57 | 35.14271 | -91.12825 | 23183 ft | 307 kts | 251° |
| 2026-05-08 14:58 | 35.13553 | -91.15077 | 22828 ft | 307 kts | 251° |
| 2026-05-08 14:58 | 35.12776 | -91.17512 | 22447 ft | 307 kts | 251° |
| 2026-05-08 14:58 | 35.12000 | -91.19938 | 22071 ft | 306 kts | 251° |
| 2026-05-08 14:58 | 35.11213 | -91.22393 | 21696 ft | 305 kts | 251° |
| 2026-05-08 14:59 | 35.10437 | -91.24809 | 21311 ft | 304 kts | 251° |
| 2026-05-08 14:59 | 35.08856 | -91.29740 | 20531 ft | 303 kts | 251° |
| 2026-05-08 14:59 | 35.08130 | -91.32005 | 20153 ft | 302 kts | 251° |
| 2026-05-08 15:00 | 35.07613 | -91.33619 | 19887 ft | 301 kts | 251° |
| 2026-05-08 15:00 | 35.06822 | -91.37047 | 19235 ft | 299 kts | 263° |
| 2026-05-08 15:00 | 35.06562 | -91.38770 | 18947 ft | 299 kts | 255° |
| 2026-05-08 15:00 | 35.05822 | -91.41152 | 18627 ft | 299 kts | 248° |
| 2026-05-08 15:01 | 35.04932 | -91.43409 | 18193 ft | 300 kts | 246° |
| 2026-05-08 15:01 | 35.04012 | -91.45776 | 17551 ft | 302 kts | 249° |
| 2026-05-08 15:01 | 35.03185 | -91.48168 | 16262 ft | 311 kts | 250° |
| 2026-05-08 15:01 | 35.02360 | -91.50727 | 14852 ft | 322 kts | 251° |
| 2026-05-08 15:02 | 35.01521 | -91.53393 | 13424 ft | 331 kts | 251° |
| 2026-05-08 15:02 | 35.00689 | -91.56037 | 12177 ft | 333 kts | 250° |
| 2026-05-08 15:02 | 34.99848 | -91.58673 | 11057 ft | 332 kts | 250° |
| 2026-05-08 15:02 | 34.98988 | -91.61334 | 10204 ft | 325 kts | 250° |
| 2026-05-08 15:03 | 34.98172 | -91.63837 | 10046 ft | 298 kts | 249° |
| 2026-05-08 15:03 | 34.97418 | -91.66147 | 9719 ft | 279 kts | 250° |
| 2026-05-08 15:03 | 34.96630 | -91.68554 | 9557 ft | 272 kts | 250° |
| 2026-05-08 15:03 | 34.95929 | -91.70694 | 9421 ft | 270 kts | 250° |
| 2026-05-08 15:04 | 34.95227 | -91.72832 | 8815 ft | 267 kts | 249° |
| 2026-05-08 15:04 | 34.94533 | -91.74940 | 8626 ft | 269 kts | 249° |
| 2026-05-08 15:04 | 34.93827 | -91.77085 | 8097 ft | 274 kts | 249° |
| 2026-05-08 15:04 | 34.93363 | -91.78495 | 7717 ft | 271 kts | 249° |
| 2026-05-08 15:05 | 34.92714 | -91.80466 | 7186 ft | 269 kts | 248° |
| 2026-05-08 15:05 | 34.92019 | -91.82580 | 6608 ft | 267 kts | 248° |
| 2026-05-08 15:05 | 34.91286 | -91.84812 | 5963 ft | 266 kts | 248° |
| 2026-05-08 15:05 | 34.90611 | -91.86865 | 5392 ft | 264 kts | 247° |
| 2026-05-08 15:06 | 34.89922 | -91.88959 | 4807 ft | 263 kts | 247° |
| 2026-05-08 15:06 | 34.89241 | -91.91025 | 4277 ft | 259 kts | 246° |
| 2026-05-08 15:06 | 34.88595 | -91.92982 | 4207 ft | 247 kts | 246° |
| 2026-05-08 15:06 | 34.87948 | -91.94939 | 4117 ft | 238 kts | 246° |
| 2026-05-08 15:07 | 34.87350 | -91.96750 | 4029 ft | 226 kts | 246° |
| 2026-05-08 15:07 | 34.86776 | -91.98483 | 3976 ft | 207 kts | 246° |
| 2026-05-08 15:07 | 34.86269 | -92.00016 | 3929 ft | 189 kts | 246° |
| 2026-05-08 15:07 | 34.85790 | -92.01464 | 3777 ft | 172 kts | 245° |
| 2026-05-08 15:08 | 34.85383 | -92.02704 | 3658 ft | 147 kts | 245° |
| 2026-05-08 15:08 | 34.85129 | -92.03476 | 3487 ft | 141 kts | 244° |
| 2026-05-08 15:08 | 34.84610 | -92.05034 | 2981 ft | 143 kts | 243° |
| 2026-05-08 15:08 | 34.84057 | -92.06015 | 2579 ft | 140 kts | 227° |
| 2026-05-08 15:09 | 34.83385 | -92.06992 | 2295 ft | 137 kts | 226° |
| 2026-05-08 15:09 | 34.82790 | -92.07818 | 2297 ft | 140 kts | 226° |
| 2026-05-08 15:09 | 34.82154 | -92.08684 | 2297 ft | 141 kts | 225° |
| 2026-05-08 15:09 | 34.81473 | -92.09602 | 2291 ft | 140 kts | 225° |
| 2026-05-08 15:10 | 34.80779 | -92.10531 | 2268 ft | 140 kts | 224° |
| 2026-05-08 15:10 | 34.80134 | -92.11392 | 2166 ft | 141 kts | 224° |
| 2026-05-08 15:10 | 34.79452 | -92.12312 | 2043 ft | 140 kts | 225° |
| 2026-05-08 15:10 | 34.78822 | -92.13191 | 1833 ft | 140 kts | 226° |
| 2026-05-08 15:11 | 34.78381 | -92.13792 | 1717 ft | 139 kts | 226° |
| 2026-05-08 15:11 | 34.77731 | -92.14669 | 1536 ft | 140 kts | 224° |
| 2026-05-08 15:11 | 34.77037 | -92.15557 | 1286 ft | 140 kts | 224° |
| 2026-05-08 15:11 | 34.76383 | -92.16376 | 1124 ft | 141 kts | 226° |
| 2026-05-08 15:12 | 34.75649 | -92.17316 | 891 ft | 142 kts | 224° |
| 2026-05-08 15:12 | 34.74973 | -92.18210 | 697 ft | 139 kts | 224° |
| 2026-05-08 15:12 | 34.74312 | -92.19080 | 533 ft | 140 kts | 224° |
| 2026-05-08 15:12 | 34.73675 | -92.19899 | 356 ft | 136 kts | 224° |
| 2026-05-08 15:13 | 34.72994 | -92.20761 | 266 ft | 110 kts | 224° |
| 2026-05-08 15:13 | 34.72671 | -92.21185 | 267 ft | 44 kts | 228° |
| 2026-05-08 15:13 | 34.72478 | -92.21441 | 268 ft | 42 kts | 232° |
| 2026-05-08 15:13 | 34.72438 | -92.21684 | 267 ft | 14 kts | 316° |
| 2026-05-08 15:14 | 34.72514 | -92.21649 | 267 ft | 13 kts | 47° |
| 2026-05-08 15:14 | 34.72586 | -92.21554 | 267 ft | 16 kts | 47° |
| 2026-05-08 15:14 | 34.72663 | -92.21456 | 267 ft | 19 kts | 46° |
| 2026-05-08 15:14 | 34.72767 | -92.21324 | 267 ft | 20 kts | 47° |
| 2026-05-08 15:15 | 34.72845 | -92.21336 | 267 ft | 13 kts | 308° |
| 2026-05-08 15:15 | 34.72886 | -92.21436 | 267 ft | 16 kts | 291° |
| 2026-05-08 15:15 | 34.72938 | -92.21585 | 267 ft | 20 kts | 297° |
| 2026-05-08 15:15 | 34.72997 | -92.21734 | 267 ft | 22 kts | 292° |
| 2026-05-08 15:16 | 34.73010 | -92.21867 | 267 ft | 9 kts | 313° |
| 2026-05-08 15:16 | 34.73038 | -92.21907 | 267 ft | 0 kts | 308° |